Ringle, Wisconsin
Current Conditions -  °F | °C
As of 6:54 PM on Tuesday 21 Oct 2014 (Local Time) from KAUW Reporting Station
Clear Clear  
Wind Chill: 45°   Ceiling: Unl
Heat Index: 45°   Visibility: 10mi
Dew Point: 35°   Wind: 3mph
Humidity: 68%   Direction: 80°E
Pressure: 30.22"   Gusts: NA
Location:  44.89°N, 89.43°W
Report Text: KAUW 212354Z AUTO 08003KT 10SM CLR 07/02 A3022 RMK AO2 SLP245 T00720017 10111 20072 52004
Loading
Personal Weather Stations






























Interactive Weather Map
Tropical Storm Tracking
New forecast layout! Learn more

10-Day Weather Forecast

Advertisements
Track Severe Weather on mobile